Time;durP1;ratioP1;P1;durP2;ratioP2;P2;SDS_P1;SDS_P2;PMS_P1;PMS_P2;Temp;Humidity;BMP_temperature;BMP_pressure;BME280_temperature;BME280_humidity;BME280_pressure;Samples;Min_cycle;Max_cycle;Signal;HPM_P1;HPM_P2
2022/02/09 00:01:40;;;;;;;103.70;89.90;;;9.70;99.90;;;;;;4879689;29;20584;-89
2022/02/09 00:09:11;;;;;;;96.20;75.10;;;9.70;99.90;;;;;;4879650;29;20146;-89
2022/02/09 00:11:39;;;;;;;92.10;67.10;;;9.70;99.90;;;;;;4878359;29;20639;-89
2022/02/09 00:14:38;;;;;;;98.97;76.60;;;9.80;99.90;;;;;;4879583;29;20780;-89
2022/02/09 01:51:15;;;;;;;107.15;95.70;;;9.50;99.90;;;;;;4882606;29;20193;-89
2022/02/09 01:56:28;;;;;;;135.32;122.35;;;9.50;99.90;;;;;;4882273;29;20225;-88
2022/02/09 01:58:54;;;;;;;125.57;113.57;;;9.50;99.90;;;;;;4880475;29;20178;-89
2022/02/09 02:01:20;;;;;;;130.88;117.97;;;9.40;99.90;;;;;;4880475;29;20209;-89
2022/02/09 02:03:46;;;;;;;123.87;111.73;;;9.50;99.90;;;;;;4881906;29;20203;-89
2022/02/09 02:06:15;;;;;;;116.07;104.27;;;9.40;99.90;;;;;;4881522;29;20927;-89
2022/02/09 02:08:42;;;;;;;128.50;116.25;;;9.40;99.90;;;;;;4880603;29;20616;-89
2022/02/09 02:19:06;;;;;;;131.02;118.63;;;9.40;99.90;;;;;;4882060;29;20162;-89
2022/02/09 02:24:23;;;;;;;198.85;184.07;;;9.30;99.90;;;;;;4881218;29;20311;-88
2022/02/09 02:27:07;;;;;;;215.52;199.95;;;9.30;99.90;;;;;;4881295;29;20273;-89
2022/02/09 02:30:01;;;;;;;270.73;253.43;;;9.30;99.90;;;;;;4881108;29;20166;-89
2022/02/09 02:46:31;;;;;;;106.30;94.60;;;9.40;99.90;;;;;;4881148;29;20190;-89
2022/02/09 03:11:18;;;;;;;151.38;138.40;;;9.40;99.90;;;;;;4880380;29;20155;-88
2022/02/09 03:13:59;;;;;;;211.45;195.52;;;9.40;99.90;;;;;;4880359;29;20253;-88
2022/02/09 03:16:34;;;;;;;156.88;143.40;;;9.40;99.90;;;;;;4879329;29;20205;-88
2022/02/09 03:24:18;;;;;;;96.00;78.65;;;9.40;99.90;;;;;;4880545;29;20161;-88
2022/02/09 03:27:04;;;;;;;95.07;76.03;;;9.40;99.90;;;;;;4878186;29;20285;-88
2022/02/09 03:46:18;;;;;;;113.63;102.22;;;9.70;99.90;;;;;;4880153;29;20285;-88
2022/02/09 03:56:26;;;;;;;77.93;31.13;;;9.60;99.90;;;;;;4879966;29;20324;-88
2022/02/09 03:58:53;;;;;;;77.57;26.55;;;9.70;99.90;;;;;;4880044;29;20510;-89
2022/02/09 04:01:21;;;;;;;75.97;23.00;;;9.70;99.90;;;;;;4878402;29;20572;-89
2022/02/09 04:03:47;;;;;;;76.35;23.67;;;9.70;99.90;;;;;;4878413;29;20592;-89
2022/02/09 04:06:13;;;;;;;77.10;20.37;;;9.70;99.90;;;;;;4878371;29;20202;-88
2022/02/09 04:08:47;;;;;;;74.93;21.50;;;9.60;99.90;;;;;;4879561;29;20181;-88
2022/02/09 04:11:38;;;;;;;81.90;39.70;;;9.60;99.90;;;;;;4879806;29;20155;-88
2022/02/09 04:19:09;;;;;;;77.82;22.75;;;9.60;99.90;;;;;;4880014;29;20963;-88
2022/02/09 04:38:10;;;;;;;78.22;28.45;;;9.50;99.90;;;;;;4879946;29;20185;-89
2022/02/09 04:41:16;;;;;;;75.20;20.15;;;9.40;99.90;;;;;;4882119;29;20163;-88
2022/02/09 04:48:37;;;;;;;77.18;26.73;;;9.40;99.90;;;;;;4883304;29;20173;-88
2022/02/09 04:51:17;;;;;;;81.35;34.00;;;9.40;99.90;;;;;;4883704;29;20189;-88
2022/02/09 04:59:43;;;;;;;74.50;16.95;;;9.40;99.90;;;;;;4883102;29;20159;-88
2022/02/09 05:23:06;;;;;;;86.45;51.25;;;9.60;99.90;;;;;;4882661;29;20159;-88
2022/02/09 05:31:01;;;;;;;80.45;31.65;;;9.50;99.90;;;;;;4871033;29;20179;-88
2022/02/09 05:33:26;;;;;;;79.07;27.85;;;9.40;99.90;;;;;;4882689;29;20170;-88
2022/02/09 05:35:55;;;;;;;84.90;36.33;;;9.40;99.90;;;;;;4880810;29;20213;-88
2022/02/09 05:38:21;;;;;;;84.10;41.63;;;9.40;99.90;;;;;;4880907;29;20175;-88
2022/02/09 05:40:47;;;;;;;79.70;26.77;;;9.40;99.90;;;;;;4880847;29;20520;-88
2022/02/09 05:43:14;;;;;;;77.47;19.48;;;9.40;99.90;;;;;;4882044;29;20536;-88
2022/02/09 05:53:25;;;;;;;85.27;38.77;;;9.30;99.90;;;;;;4882418;29;20253;-89
2022/02/09 05:56:07;;;;;;;82.28;36.10;;;9.40;99.90;;;;;;4880563;29;20258;-89
2022/02/09 05:58:36;;;;;;;82.03;39.00;;;9.40;99.90;;;;;;4881710;29;20202;-88
2022/02/09 06:01:04;;;;;;;87.80;49.55;;;9.40;99.90;;;;;;4882024;29;20186;-88
2022/02/09 06:03:30;;;;;;;86.13;45.47;;;9.40;99.90;;;;;;4880666;29;20244;-88
2022/02/09 06:05:56;;;;;;;81.00;31.50;;;9.40;99.90;;;;;;4881526;29;20202;-88
2022/02/09 06:08:24;;;;;;;77.87;24.73;;;9.40;99.90;;;;;;4881607;29;20293;-88
2022/02/09 06:11:01;;;;;;;79.15;23.35;;;9.40;99.90;;;;;;4880389;29;20793;-89
2022/02/09 06:13:51;;;;;;;78.63;28.73;;;9.30;99.90;;;;;;4880281;29;20163;-88
2022/02/09 06:21:45;;;;;;;76.45;19.33;;;9.50;99.90;;;;;;4881733;29;20211;-88
2022/02/09 06:24:11;;;;;;;76.03;22.17;;;9.50;99.90;;;;;;4881457;29;20171;-88
2022/02/09 06:26:36;;;;;;;77.40;21.37;;;9.50;99.90;;;;;;4881197;29;20194;-88
2022/02/09 06:29:02;;;;;;;77.77;21.63;;;9.50;99.90;;;;;;4881886;29;20271;-88
2022/02/09 06:31:28;;;;;;;74.70;21.50;;;9.60;99.90;;;;;;4881194;29;20257;-88
2022/02/09 06:33:54;;;;;;;77.40;22.20;;;9.60;99.90;;;;;;4881210;29;20194;-88
2022/02/09 06:36:23;;;;;;;76.47;22.60;;;9.60;99.90;;;;;;4881009;29;20209;-88
2022/02/09 06:38:49;;;;;;;76.35;20.88;;;9.60;99.90;;;;;;4881385;29;20257;-88
2022/02/09 06:41:15;;;;;;;78.22;24.45;;;9.60;99.90;;;;;;4879657;29;20261;-88
2022/02/09 06:43:41;;;;;;;79.07;21.00;;;9.60;99.90;;;;;;4879834;29;20310;-88
2022/02/09 06:46:06;;;;;;;77.30;26.97;;;9.60;99.90;;;;;;4880908;29;20540;-88
2022/02/09 06:48:33;;;;;;;78.00;26.30;;;9.70;99.90;;;;;;4879674;29;20174;-88
2022/02/09 06:51:12;;;;;;;76.90;19.55;;;9.70;99.90;;;;;;4881046;29;20273;-88
2022/02/09 06:53:46;;;;;;;78.03;20.88;;;9.70;99.90;;;;;;4880167;29;20159;-88
2022/02/09 06:56:23;;;;;;;76.95;22.25;;;9.60;99.90;;;;;;4879909;29;20210;-88
2022/02/09 06:59:10;;;;;;;76.47;23.70;;;9.70;99.90;;;;;;4882225;29;20686;-88
2022/02/09 07:01:36;;;;;;;75.43;18.55;;;9.70;99.90;;;;;;4879738;29;20185;-88
2022/02/09 07:04:02;;;;;;;77.50;22.60;;;9.70;99.90;;;;;;4879728;29;20543;-88
2022/02/09 07:06:28;;;;;;;78.40;21.90;;;9.70;99.90;;;;;;4879792;29;20435;-87
2022/02/09 07:08:55;;;;;;;75.85;19.58;;;9.70;99.90;;;;;;4879822;29;20503;-88
2022/02/09 07:11:20;;;;;;;76.73;20.47;;;9.70;99.90;;;;;;4881893;29;20171;-88
2022/02/09 07:13:46;;;;;;;75.20;19.50;;;9.70;99.90;;;;;;4879461;29;20178;-88
2022/02/09 07:16:12;;;;;;;76.27;19.90;;;9.70;99.90;;;;;;4880395;29;20199;-88
2022/02/09 07:18:38;;;;;;;75.63;20.20;;;9.70;99.90;;;;;;4879684;29;20232;-88
2022/02/09 07:21:12;;;;;;;75.50;19.53;;;9.80;99.90;;;;;;4879949;29;20177;-87
2022/02/09 07:23:45;;;;;;;77.95;24.88;;;9.80;99.90;;;;;;4879678;29;20451;-87
2022/02/09 07:26:20;;;;;;;78.20;27.45;;;9.80;99.90;;;;;;4880621;29;20197;-88
2022/02/09 07:28:46;;;;;;;77.05;23.67;;;9.80;99.90;;;;;;4881213;29;20155;-87
2022/02/09 07:31:13;;;;;;;81.28;29.23;;;9.80;99.90;;;;;;4880574;29;20556;-88
2022/02/09 07:33:42;;;;;;;78.70;25.33;;;9.80;99.90;;;;;;4879309;29;20270;-87
2022/02/09 07:36:08;;;;;;;78.47;22.02;;;9.80;99.90;;;;;;4879988;29;20206;-88
2022/02/09 07:38:35;;;;;;;78.03;24.05;;;9.90;99.90;;;;;;4878785;29;20265;-88
2022/02/09 07:41:01;;;;;;;78.38;23.55;;;9.90;99.90;;;;;;4879926;29;20171;-88
2022/02/09 07:49:05;;;;;;;74.70;17.35;;;10.00;99.90;;;;;;4879897;29;20210;-88
2022/02/09 07:51:40;;;;;;;75.70;18.33;;;10.00;99.90;;;;;;4879899;29;20182;-88
2022/02/09 07:54:08;;;;;;;75.88;22.13;;;10.00;99.90;;;;;;4880340;29;20150;-88
2022/02/09 07:56:39;;;;;;;78.45;28.17;;;10.00;99.90;;;;;;4878870;29;20218;-88
2022/02/09 07:59:08;;;;;;;83.65;42.58;;;10.00;99.90;;;;;;4879710;29;20174;-87
2022/02/09 08:01:38;;;;;;;95.60;71.43;;;10.00;99.90;;;;;;4880322;29;20167;-87
2022/02/09 08:04:04;;;;;;;102.63;75.90;;;10.00;99.90;;;;;;4880928;29;20166;-88
2022/02/09 08:06:31;;;;;;;95.85;61.05;;;10.00;99.90;;;;;;4879477;29;20249;-87
2022/02/09 08:09:01;;;;;;;97.97;74.40;;;10.00;99.90;;;;;;4880691;29;20173;-87
2022/02/09 08:11:46;;;;;;;108.35;94.00;;;10.00;99.90;;;;;;4880725;29;20630;-88
2022/02/09 08:32:55;;;;;;;138.52;125.75;;;10.10;99.90;;;;;;4879782;29;20266;-88
2022/02/09 08:35:21;;;;;;;107.88;96.60;;;10.10;99.90;;;;;;4878123;29;20198;-88
2022/02/09 08:37:47;;;;;;;106.40;95.10;;;10.20;99.90;;;;;;4879503;29;20177;-88
2022/02/09 08:40:17;;;;;;;103.80;90.80;;;10.20;99.90;;;;;;4879589;29;20166;-88
2022/02/09 08:42:43;;;;;;;125.63;113.25;;;10.10;99.90;;;;;;4878433;29;20209;-88
2022/02/09 08:45:09;;;;;;;127.20;115.20;;;10.10;99.90;;;;;;4877971;29;20234;-88
2022/02/09 08:47:35;;;;;;;140.45;128.15;;;10.00;99.90;;;;;;4878098;29;20170;-88
2022/02/09 08:50:03;;;;;;;136.73;124.50;;;10.00;99.90;;;;;;4878213;29;20273;-88
2022/02/09 08:52:29;;;;;;;135.48;123.15;;;10.00;99.90;;;;;;4878267;29;20191;-88
2022/02/09 08:54:55;;;;;;;127.40;115.03;;;10.00;99.90;;;;;;4879162;29;20228;-87
2022/02/09 08:57:21;;;;;;;113.67;101.83;;;9.90;99.90;;;;;;4880084;29;20410;-88
2022/02/09 08:59:49;;;;;;;115.90;104.10;;;9.90;99.90;;;;;;4879630;29;20623;-88
2022/02/09 09:02:18;;;;;;;99.35;78.78;;;10.00;99.90;;;;;;4878374;29;20183;-88
2022/02/09 09:04:51;;;;;;;98.30;80.25;;;9.90;99.90;;;;;;4879189;29;20683;-87
2022/02/09 09:07:29;;;;;;;94.68;74.82;;;9.90;99.90;;;;;;4879708;29;20167;-88
2022/02/09 09:10:07;;;;;;;100.40;87.55;;;9.90;99.90;;;;;;4877996;29;20238;-88
2022/02/09 10:02:07;;;;;;;213.57;198.47;;;10.20;99.90;;;;;;4881889;29;20171;-86
2022/02/09 10:35:10;;;;;;;122.75;110.78;;;10.50;99.90;;;;;;4881439;29;20209;-87
2022/02/09 10:37:35;;;;;;;115.40;103.20;;;10.40;99.90;;;;;;4879583;29;20193;-87
2022/02/09 10:40:09;;;;;;;134.37;122.03;;;10.50;99.90;;;;;;4880545;29;20182;-87
2022/02/09 10:42:43;;;;;;;97.90;79.47;;;10.50;99.90;;;;;;4880155;29;20170;-87
2022/02/09 10:45:32;;;;;;;95.13;54.90;;;10.60;99.90;;;;;;4880592;29;20201;-87
2022/02/09 10:47:59;;;;;;;83.85;37.85;;;10.60;99.90;;;;;;4880984;29;20631;-87
2022/02/09 10:50:35;;;;;;;78.35;19.35;;;10.60;99.90;;;;;;4881506;29;20620;-87
2022/02/09 10:53:03;;;;;;;82.20;19.55;;;10.60;99.90;;;;;;4879785;29;20251;-87
2022/02/09 10:55:34;;;;;;;74.68;20.15;;;10.60;99.90;;;;;;4879490;29;20244;-87
2022/02/09 10:58:21;;;;;;;74.70;16.38;;;10.60;99.90;;;;;;4879749;29;20620;-87
2022/02/09 11:00:48;;;;;;;76.28;17.02;;;10.60;99.90;;;;;;4881600;29;20155;-87
2022/02/09 11:03:15;;;;;;;76.20;20.52;;;10.60;99.90;;;;;;4865045;29;20549;-87
2022/02/09 11:05:47;;;;;;;76.60;22.63;;;10.70;99.90;;;;;;4881014;29;20187;-87
2022/02/09 11:08:13;;;;;;;80.38;33.38;;;10.70;99.90;;;;;;4881001;29;20214;-87
2022/02/09 11:10:39;;;;;;;86.30;32.97;;;10.80;99.90;;;;;;4880832;29;20186;-87
2022/02/09 11:13:09;;;;;;;80.78;34.47;;;10.80;99.90;;;;;;4880792;29;20159;-87
2022/02/09 11:15:37;;;;;;;80.28;36.85;;;10.80;99.90;;;;;;4880532;29;20207;-87
2022/02/09 11:18:03;;;;;;;87.18;47.28;;;10.90;99.90;;;;;;4880442;29;20175;-87
2022/02/09 11:20:31;;;;;;;89.65;59.47;;;10.90;99.90;;;;;;4880337;29;20167;-87
2022/02/09 11:22:58;;;;;;;88.88;63.00;;;10.90;99.90;;;;;;4880861;29;20187;-87
2022/02/09 11:25:53;;;;;;;;;;;;;;;;;;;;;
2022/02/09 11:28:37;;;;;;;93.93;67.50;;;11.00;99.90;;;;;;4887011;29;20277;-87
2022/02/09 11:31:10;;;;;;;94.28;71.00;;;11.00;99.90;;;;;;4883360;29;20171;-87
2022/02/09 11:34:29;;;;;;;93.50;65.30;;;11.00;99.90;;;;;;4880237;29;20163;-87
2022/02/09 11:39:55;;;;;;;83.85;44.10;;;11.10;99.90;;;;;;4849349;29;20182;-87
2022/02/09 11:42:53;;;;;;;87.53;45.13;;;11.10;99.90;;;;;;4860171;29;20191;-87
2022/02/09 12:20:47;;;;;;;;;;;;;;;;;;;;;
2022/02/09 12:23:36;;;;;;;74.68;16.10;;;11.40;99.90;;;;;;4804550;29;20177;-87
2022/02/09 12:26:31;;;;;;;75.53;16.73;;;11.40;99.90;;;;;;4845232;29;20580;-86
2022/02/09 12:29:01;;;;;;;76.10;14.55;;;11.50;99.90;;;;;;4860051;29;20190;-88
2022/02/09 12:31:31;;;;;;;76.95;15.77;;;11.50;99.90;;;;;;4861012;29;20238;-88
2022/02/09 12:34:00;;;;;;;79.50;14.13;;;11.60;99.90;;;;;;4861090;29;20175;-88
2022/02/09 12:36:28;;;;;;;73.50;16.58;;;11.60;99.90;;;;;;4859552;29;20231;-88
2022/02/09 12:39:00;;;;;;;75.63;17.23;;;11.60;99.90;;;;;;4859827;29;20186;-88
2022/02/09 12:41:26;;;;;;;79.43;24.60;;;11.70;99.90;;;;;;4859885;29;20547;-88
2022/02/09 12:44:10;;;;;;;81.80;33.37;;;11.70;99.90;;;;;;4860168;29;20172;-88
2022/02/09 12:46:38;;;;;;;83.38;38.75;;;11.70;99.90;;;;;;4860855;29;20243;-88
2022/02/09 12:49:09;;;;;;;85.70;36.13;;;11.70;99.90;;;;;;4860886;29;20178;-88
2022/02/09 12:51:39;;;;;;;87.38;43.55;;;11.80;99.90;;;;;;4859913;29;20171;-88
2022/02/09 12:54:09;;;;;;;86.43;48.28;;;11.80;99.90;;;;;;4861015;29;20170;-88
2022/02/09 12:56:38;;;;;;;82.43;36.67;;;11.80;99.90;;;;;;4860777;29;20231;-88
2022/02/09 12:59:06;;;;;;;84.60;43.67;;;11.90;99.90;;;;;;4861290;29;20247;-88
2022/02/09 13:01:52;;;;;;;85.20;41.92;;;11.90;99.90;;;;;;4864600;29;20246;-88
2022/02/09 13:04:28;;;;;;;85.65;49.03;;;11.90;99.90;;;;;;4864416;29;20667;-88
2022/02/09 13:06:57;;;;;;;87.28;53.75;;;11.90;99.10;;;;;;4862913;29;20191;-88
2022/02/09 13:09:24;;;;;;;89.53;41.00;;;12.00;99.90;;;;;;4863163;29;20179;-88
2022/02/09 13:11:50;;;;;;;87.00;42.38;;;11.90;99.90;;;;;;4864609;29;20211;-88
2022/02/09 13:14:26;;;;;;;80.80;30.27;;;11.90;99.90;;;;;;4864201;29;20235;-88
2022/02/09 13:54:35;;;;;;;80.13;28.25;;;11.90;99.90;;;;;;4864053;29;20166;-88
2022/02/09 14:12:10;;;;;;;84.55;43.13;;;11.70;99.90;;;;;;4862847;29;20208;-88
2022/02/09 14:14:59;;;;;;;92.32;46.35;;;11.80;99.90;;;;;;4861655;29;20171;-88
2022/02/09 14:58:11;;;;;;;79.65;26.05;;;11.70;99.90;;;;;;4863301;29;20160;-88
2022/02/09 15:00:50;;;;;;;80.30;28.73;;;11.70;99.90;;;;;;4861654;29;20167;-88
2022/02/09 15:03:26;;;;;;;77.90;26.10;;;11.70;99.90;;;;;;4861751;29;20521;-88
2022/02/09 15:08:50;;;;;;;92.63;39.75;;;11.70;99.90;;;;;;4863022;29;20170;-88
2022/02/09 15:11:49;;;;;;;89.68;49.25;;;11.80;99.90;;;;;;4862797;29;20151;-88
2022/02/09 15:14:23;;;;;;;91.25;49.72;;;11.80;99.90;;;;;;4862069;29;20167;-88
2022/02/09 15:19:41;;;;;;;85.13;45.38;;;11.80;99.90;;;;;;4862341;29;20197;-88
2022/02/09 15:22:09;;;;;;;87.25;44.47;;;11.90;99.90;;;;;;4861987;29;20551;-88
2022/02/09 15:27:07;;;;;;;91.10;47.10;;;11.90;99.90;;;;;;4862395;29;20680;-88
2022/02/09 15:29:37;;;;;;;90.50;57.78;;;11.90;99.90;;;;;;4862880;29;20674;-88
2022/02/09 15:32:15;;;;;;;92.35;49.80;;;12.00;99.90;;;;;;4861276;29;20250;-88
2022/02/09 15:34:43;;;;;;;82.47;42.47;;;12.10;99.90;;;;;;4860961;29;20171;-88
2022/02/09 15:37:21;;;;;;;83.25;41.33;;;12.20;99.80;;;;;;4862514;29;20219;-88
2022/02/09 15:39:54;;;;;;;85.13;48.03;;;12.20;99.50;;;;;;4862284;29;20154;-88
2022/02/09 16:22:26;;;;;;;94.57;40.47;;;11.40;99.90;;;;;;4862955;29;20151;-86
2022/02/09 16:46:22;;;;;;;77.38;21.65;;;11.10;99.90;;;;;;4865655;29;20737;-86
2022/02/09 16:49:04;;;;;;;77.95;20.70;;;11.10;99.90;;;;;;4864286;29;20261;-86
2022/02/09 16:51:45;;;;;;;74.78;17.10;;;11.10;99.90;;;;;;4894518;23;20686;-87
2022/02/09 16:57:03;;;;;;;72.50;15.18;;;10.90;99.90;;;;;;4905405;23;20260;-87
2022/02/09 17:19:00;;;;;;;72.50;11.73;;;10.40;99.90;;;;;;4883469;29;20158;-87
2022/02/09 17:21:28;;;;;;;76.82;13.48;;;10.40;99.90;;;;;;4883582;29;20170;-87
2022/02/09 17:23:57;;;;;;;73.22;12.27;;;10.40;99.90;;;;;;4881234;29;20588;-87
2022/02/09 17:26:24;;;;;;;78.28;14.15;;;10.30;99.90;;;;;;4882399;29;20194;-87
2022/02/09 17:28:57;;;;;;;76.35;13.90;;;10.30;99.90;;;;;;4881431;29;20205;-87
2022/02/09 17:31:31;;;;;;;80.18;15.48;;;10.20;99.90;;;;;;4882192;29;20638;-88
2022/02/09 17:34:17;;;;;;;74.32;15.25;;;10.20;99.90;;;;;;4882331;29;20245;-87
2022/02/09 17:37:00;;;;;;;75.10;15.85;;;10.20;99.90;;;;;;4880705;29;20210;-87
2022/02/09 17:53:23;;;;;;;72.32;12.05;;;10.10;99.90;;;;;;4882782;29;20153;-87
2022/02/09 22:54:40;;;;;;;202.25;187.20;;;5.10;99.90;;;;;;4880968;29;20222;-88
2022/02/09 22:57:06;;;;;;;197.90;183.05;;;5.00;99.90;;;;;;4879692;29;20255;-88
2022/02/09 22:59:40;;;;;;;196.13;180.50;;;5.00;99.90;;;;;;4880837;29;20309;-88
2022/02/09 23:02:21;;;;;;;223.13;207.25;;;4.90;99.90;;;;;;4881236;29;20641;-88
2022/02/09 23:05:14;;;;;;;200.77;185.95;;;4.90;99.90;;;;;;4879559;29;20195;-88
2022/02/09 23:10:40;;;;;;;176.00;161.68;;;4.70;99.90;;;;;;4880950;29;20207;-88
2022/02/09 23:13:15;;;;;;;155.13;141.90;;;4.70;99.90;;;;;;4880766;29;20179;-88
2022/02/09 23:15:59;;;;;;;187.75;173.13;;;4.70;99.90;;;;;;4880386;29;20202;-88
2022/02/09 23:56:34;;;;;;;186.05;171.88;;;4.20;99.90;;;;;;4880529;29;20238;-88
